sensor_id;sensor_type;location;lat;lon;timestamp;temperature;humidity
1800;DHT22;919;48.274;12.292;2024-03-23T00:54:23;7.60;99.90
1800;DHT22;919;48.274;12.292;2024-03-23T00:56:50;7.50;99.90
1800;DHT22;919;48.274;12.292;2024-03-23T00:59:16;7.30;99.90
1800;DHT22;919;48.274;12.292;2024-03-23T01:01:42;7.20;99.90
1800;DHT22;919;48.274;12.292;2024-03-23T01:04:08;7.20;99.90
1800;DHT22;919;48.274;12.292;2024-03-23T01:06:35;7.20;99.90
1800;DHT22;919;48.274;12.292;2024-03-23T01:09:00;7.20;99.90
1800;DHT22;919;48.274;12.292;2024-03-23T01:11:28;7.20;99.90
1800;DHT22;919;48.274;12.292;2024-03-23T01:13:54;7.20;99.90
1800;DHT22;919;48.274;12.292;2024-03-23T01:16:21;7.10;99.90
1800;DHT22;919;48.274;12.292;2024-03-23T01:18:47;7.10;99.90
1800;DHT22;919;48.274;12.292;2024-03-23T01:21:14;7.10;99.90
1800;DHT22;919;48.274;12.292;2024-03-23T01:23:39;7.10;99.90
1800;DHT22;919;48.274;12.292;2024-03-23T01:26:07;7.00;99.90
1800;DHT22;919;48.274;12.292;2024-03-23T01:28:34;7.00;99.90
1800;DHT22;919;48.274;12.292;2024-03-23T01:31:02;6.80;99.90
1800;DHT22;919;48.274;12.292;2024-03-23T01:33:28;6.60;99.90
1800;DHT22;919;48.274;12.292;2024-03-23T01:35:54;6.50;99.90
1800;DHT22;919;48.274;12.292;2024-03-23T01:38:20;6.40;99.90
1800;DHT22;919;48.274;12.292;2024-03-23T01:40:47;6.40;99.90
1800;DHT22;919;48.274;12.292;2024-03-23T01:43:13;6.50;99.90
1800;DHT22;919;48.274;12.292;2024-03-23T01:45:41;6.50;99.90
1800;DHT22;919;48.274;12.292;2024-03-23T01:48:07;6.50;99.90
1800;DHT22;919;48.274;12.292;2024-03-23T01:50:34;6.40;99.90
1800;DHT22;919;48.274;12.292;2024-03-23T01:53:01;6.30;99.90
1800;DHT22;919;48.274;12.292;2024-03-23T01:55:28;6.30;99.90
1800;DHT22;919;48.274;12.292;2024-03-23T01:57:56;6.30;99.90
1800;DHT22;919;48.274;12.292;2024-03-23T02:00:24;6.20;99.90
1800;DHT22;919;48.274;12.292;2024-03-23T02:02:51;6.20;99.90
1800;DHT22;919;48.274;12.292;2024-03-23T02:05:17;6.20;99.90
1800;DHT22;919;48.274;12.292;2024-03-23T02:07:43;6.20;99.90
1800;DHT22;919;48.274;12.292;2024-03-23T02:10:11;6.10;99.90
1800;DHT22;919;48.274;12.292;2024-03-23T02:12:38;6.20;99.90
1800;DHT22;919;48.274;12.292;2024-03-23T02:15:06;6.20;99.90
1800;DHT22;919;48.274;12.292;2024-03-23T02:17:33;6.20;99.90
1800;DHT22;919;48.274;12.292;2024-03-23T02:20:02;6.20;99.90
1800;DHT22;919;48.274;12.292;2024-03-23T02:22:36;6.10;99.90
1800;DHT22;919;48.274;12.292;2024-03-23T02:25:05;6.10;99.90
1800;DHT22;919;48.274;12.292;2024-03-23T02:27:31;6.10;99.90
1800;DHT22;919;48.274;12.292;2024-03-23T02:29:58;6.10;99.90
1800;DHT22;919;48.274;12.292;2024-03-23T02:32:24;6.00;99.90
1800;DHT22;919;48.274;12.292;2024-03-23T02:34:50;6.00;99.90
1800;DHT22;919;48.274;12.292;2024-03-23T02:37:16;6.00;99.90
1800;DHT22;919;48.274;12.292;2024-03-23T02:39:43;5.90;99.90
1800;DHT22;919;48.274;12.292;2024-03-23T02:42:10;5.80;99.90
1800;DHT22;919;48.274;12.292;2024-03-23T02:44:37;5.80;99.90
1800;DHT22;919;48.274;12.292;2024-03-23T02:47:02;5.80;99.90
1800;DHT22;919;48.274;12.292;2024-03-23T02:49:29;5.80;99.90
1800;DHT22;919;48.274;12.292;2024-03-23T02:51:55;5.70;99.90
1800;DHT22;919;48.274;12.292;2024-03-23T02:54:22;5.70;99.90
1800;DHT22;919;48.274;12.292;2024-03-23T02:56:47;5.60;99.90
1800;DHT22;919;48.274;12.292;2024-03-23T02:59:15;5.70;99.90
1800;DHT22;919;48.274;12.292;2024-03-23T03:01:41;5.70;99.90
1800;DHT22;919;48.274;12.292;2024-03-23T03:04:08;5.60;99.90
1800;DHT22;919;48.274;12.292;2024-03-23T03:06:33;5.60;99.90
1800;DHT22;919;48.274;12.292;2024-03-23T03:09:00;5.50;99.90
1800;DHT22;919;48.274;12.292;2024-03-23T03:11:26;5.50;99.90
1800;DHT22;919;48.274;12.292;2024-03-23T03:13:53;5.50;99.90
1800;DHT22;919;48.274;12.292;2024-03-23T03:16:20;5.50;99.90
1800;DHT22;919;48.274;12.292;2024-03-23T03:18:46;5.40;99.90
1800;DHT22;919;48.274;12.292;2024-03-23T03:21:12;5.30;99.90
1800;DHT22;919;48.274;12.292;2024-03-23T03:23:39;5.30;99.90
1800;DHT22;919;48.274;12.292;2024-03-23T03:26:05;5.40;99.90
1800;DHT22;919;48.274;12.292;2024-03-23T03:28:32;5.40;99.90
1800;DHT22;919;48.274;12.292;2024-03-23T03:30:58;5.50;99.90
1800;DHT22;919;48.274;12.292;2024-03-23T03:33:27;5.40;99.90
1800;DHT22;919;48.274;12.292;2024-03-23T03:35:53;5.30;99.90
1800;DHT22;919;48.274;12.292;2024-03-23T03:38:20;5.40;99.90
1800;DHT22;919;48.274;12.292;2024-03-23T03:40:45;5.30;99.90
1800;DHT22;919;48.274;12.292;2024-03-23T03:43:12;5.30;99.90
1800;DHT22;919;48.274;12.292;2024-03-23T03:45:38;5.30;99.90
1800;DHT22;919;48.274;12.292;2024-03-23T03:48:06;5.30;99.90
1800;DHT22;919;48.274;12.292;2024-03-23T03:50:33;5.30;99.90
1800;DHT22;919;48.274;12.292;2024-03-23T03:52:59;5.40;99.90
1800;DHT22;919;48.274;12.292;2024-03-23T03:55:25;5.40;99.90
1800;DHT22;919;48.274;12.292;2024-03-23T03:57:52;5.20;99.90
1800;DHT22;919;48.274;12.292;2024-03-23T04:00:18;5.10;99.90
1800;DHT22;919;48.274;12.292;2024-03-23T04:02:45;5.10;99.90
1800;DHT22;919;48.274;12.292;2024-03-23T04:05:11;5.10;99.90
1800;DHT22;919;48.274;12.292;2024-03-23T04:07:39;5.10;99.90
1800;DHT22;919;48.274;12.292;2024-03-23T04:10:06;5.10;99.90
1800;DHT22;919;48.274;12.292;2024-03-23T04:12:33;5.00;99.90
1800;DHT22;919;48.274;12.292;2024-03-23T04:14:59;4.90;99.90
1800;DHT22;919;48.274;12.292;2024-03-23T04:17:28;4.90;99.90
1800;DHT22;919;48.274;12.292;2024-03-23T04:19:57;4.80;99.90
1800;DHT22;919;48.274;12.292;2024-03-23T04:22:24;4.80;99.90
1800;DHT22;919;48.274;12.292;2024-03-23T04:24:52;4.80;99.90
1800;DHT22;919;48.274;12.292;2024-03-23T04:27:19;4.60;99.90
1800;DHT22;919;48.274;12.292;2024-03-23T04:29:47;4.50;99.90
1800;DHT22;919;48.274;12.292;2024-03-23T04:32:14;4.40;99.90
1800;DHT22;919;48.274;12.292;2024-03-23T04:34:40;4.40;99.90
1800;DHT22;919;48.274;12.292;2024-03-23T04:37:07;4.40;99.90
1800;DHT22;919;48.274;12.292;2024-03-23T04:39:34;4.50;99.90
1800;DHT22;919;48.274;12.292;2024-03-23T04:42:02;4.60;99.90
1800;DHT22;919;48.274;12.292;2024-03-23T04:44:28;4.70;99.90
1800;DHT22;919;48.274;12.292;2024-03-23T04:46:54;4.70;99.90
1800;DHT22;919;48.274;12.292;2024-03-23T04:49:21;4.80;99.90
1800;DHT22;919;48.274;12.292;2024-03-23T04:51:48;4.80;99.90
1800;DHT22;919;48.274;12.292;2024-03-23T04:54:15;4.90;99.90
1800;DHT22;919;48.274;12.292;2024-03-23T04:56:41;4.90;99.90
1800;DHT22;919;48.274;12.292;2024-03-23T04:59:09;5.00;99.90
1800;DHT22;919;48.274;12.292;2024-03-23T05:01:36;5.10;99.90
1800;DHT22;919;48.274;12.292;2024-03-23T05:04:04;5.10;99.90
1800;DHT22;919;48.274;12.292;2024-03-23T05:06:31;5.20;99.90
1800;DHT22;919;48.274;12.292;2024-03-23T05:08:57;5.30;99.90
1800;DHT22;919;48.274;12.292;2024-03-23T05:11:24;5.40;99.90
1800;DHT22;919;48.274;12.292;2024-03-23T05:13:49;5.50;99.90
1800;DHT22;919;48.274;12.292;2024-03-23T05:16:18;5.60;99.90
1800;DHT22;919;48.274;12.292;2024-03-23T05:18:43;5.70;99.90
1800;DHT22;919;48.274;12.292;2024-03-23T05:21:10;5.70;99.90
1800;DHT22;919;48.274;12.292;2024-03-23T05:23:36;5.70;99.90
1800;DHT22;919;48.274;12.292;2024-03-23T05:26:03;5.70;99.90
1800;DHT22;919;48.274;12.292;2024-03-23T05:28:30;5.80;99.90
1800;DHT22;919;48.274;12.292;2024-03-23T05:30:56;5.70;99.90
1800;DHT22;919;48.274;12.292;2024-03-23T05:33:24;5.70;99.90
1800;DHT22;919;48.274;12.292;2024-03-23T05:35:56;5.70;99.90
1800;DHT22;919;48.274;12.292;2024-03-23T05:38:22;5.70;99.90
1800;DHT22;919;48.274;12.292;2024-03-23T05:40:53;5.80;99.90
1800;DHT22;919;48.274;12.292;2024-03-23T05:43:19;5.80;99.90
1800;DHT22;919;48.274;12.292;2024-03-23T05:45:46;5.90;99.90
1800;DHT22;919;48.274;12.292;2024-03-23T05:48:11;6.10;99.90
1800;DHT22;919;48.274;12.292;2024-03-23T05:50:40;6.30;99.90
1800;DHT22;919;48.274;12.292;2024-03-23T05:53:06;6.30;99.90
1800;DHT22;919;48.274;12.292;2024-03-23T05:55:33;6.40;99.90
1800;DHT22;919;48.274;12.292;2024-03-23T05:57:59;6.50;99.90
1800;DHT22;919;48.274;12.292;2024-03-23T06:00:25;6.60;99.90
1800;DHT22;919;48.274;12.292;2024-03-23T06:02:51;6.70;99.90
1800;DHT22;919;48.274;12.292;2024-03-23T06:05:18;6.80;99.90
1800;DHT22;919;48.274;12.292;2024-03-23T06:07:45;6.90;99.90
1800;DHT22;919;48.274;12.292;2024-03-23T06:10:12;7.00;99.90
1800;DHT22;919;48.274;12.292;2024-03-23T06:12:38;7.10;99.90
1800;DHT22;919;48.274;12.292;2024-03-23T06:15:05;7.20;99.90
1800;DHT22;919;48.274;12.292;2024-03-23T06:17:35;7.30;99.90
1800;DHT22;919;48.274;12.292;2024-03-23T06:20:02;7.40;99.90
1800;DHT22;919;48.274;12.292;2024-03-23T06:22:28;7.50;99.90
1800;DHT22;919;48.274;12.292;2024-03-23T06:24:56;7.60;99.90
1800;DHT22;919;48.274;12.292;2024-03-23T06:27:21;7.70;99.90
1800;DHT22;919;48.274;12.292;2024-03-23T06:29:48;7.80;99.90
1800;DHT22;919;48.274;12.292;2024-03-23T06:32:14;7.80;99.90
1800;DHT22;919;48.274;12.292;2024-03-23T06:34:41;8.00;99.90
1800;DHT22;919;48.274;12.292;2024-03-23T06:37:07;8.10;99.90
1800;DHT22;919;48.274;12.292;2024-03-23T06:39:35;8.20;99.90
1800;DHT22;919;48.274;12.292;2024-03-23T06:42:02;8.40;99.90
1800;DHT22;919;48.274;12.292;2024-03-23T06:44:29;8.50;99.90
1800;DHT22;919;48.274;12.292;2024-03-23T06:46:56;8.70;99.90
1800;DHT22;919;48.274;12.292;2024-03-23T06:49:23;8.90;99.90
1800;DHT22;919;48.274;12.292;2024-03-23T06:51:50;9.00;99.90
1800;DHT22;919;48.274;12.292;2024-03-23T06:54:16;9.20;99.90
1800;DHT22;919;48.274;12.292;2024-03-23T06:56:44;9.30;99.90
1800;DHT22;919;48.274;12.292;2024-03-23T06:59:11;9.60;99.90
1800;DHT22;919;48.274;12.292;2024-03-23T07:01:38;10.00;99.90
1800;DHT22;919;48.274;12.292;2024-03-23T07:04:04;10.60;99.90
1800;DHT22;919;48.274;12.292;2024-03-23T07:06:31;11.00;99.90
1800;DHT22;919;48.274;12.292;2024-03-23T07:08:57;11.50;99.90
1800;DHT22;919;48.274;12.292;2024-03-23T07:11:24;11.80;99.90
1800;DHT22;919;48.274;12.292;2024-03-23T07:13:50;12.10;99.90
1800;DHT22;919;48.274;12.292;2024-03-23T07:16:18;12.30;99.90
1800;DHT22;919;48.274;12.292;2024-03-23T07:18:44;12.50;99.90
1800;DHT22;919;48.274;12.292;2024-03-23T07:21:12;12.50;99.90
1800;DHT22;919;48.274;12.292;2024-03-23T07:23:38;12.70;99.90
1800;DHT22;919;48.274;12.292;2024-03-23T07:26:10;12.70;99.90
1800;DHT22;919;48.274;12.292;2024-03-23T07:28:35;12.80;99.90
1800;DHT22;919;48.274;12.292;2024-03-23T07:31:04;12.80;99.90
1800;DHT22;919;48.274;12.292;2024-03-23T07:33:31;12.90;99.90
1800;DHT22;919;48.274;12.292;2024-03-23T07:35:59;12.90;99.90
1800;DHT22;919;48.274;12.292;2024-03-23T07:38:26;13.00;99.90
1800;DHT22;919;48.274;12.292;2024-03-23T07:41:02;13.00;99.90
1800;DHT22;919;48.274;12.292;2024-03-23T07:43:28;13.00;99.90
1800;DHT22;919;48.274;12.292;2024-03-23T07:45:55;13.20;99.90
1800;DHT22;919;48.274;12.292;2024-03-23T07:48:21;13.40;99.90
1800;DHT22;919;48.274;12.292;2024-03-23T07:51:00;13.60;99.90
1800;DHT22;919;48.274;12.292;2024-03-23T07:53:28;13.90;99.90
1800;DHT22;919;48.274;12.292;2024-03-23T07:55:56;14.10;99.90
1800;DHT22;919;48.274;12.292;2024-03-23T07:58:22;14.30;99.90
1800;DHT22;919;48.274;12.292;2024-03-23T08:00:48;14.40;99.90
1800;DHT22;919;48.274;12.292;2024-03-23T08:03:15;14.50;99.90
1800;DHT22;919;48.274;12.292;2024-03-23T08:05:41;14.60;99.90
1800;DHT22;919;48.274;12.292;2024-03-23T08:08:09;14.60;99.90
1800;DHT22;919;48.274;12.292;2024-03-23T08:10:36;14.40;99.90
1800;DHT22;919;48.274;12.292;2024-03-23T08:13:03;14.20;99.90
1800;DHT22;919;48.274;12.292;2024-03-23T08:15:30;14.00;99.90
1800;DHT22;919;48.274;12.292;2024-03-23T08:17:58;13.70;99.90
1800;DHT22;919;48.274;12.292;2024-03-23T08:20:25;13.50;99.90
1800;DHT22;919;48.274;12.292;2024-03-23T08:22:51;13.20;99.90
1800;DHT22;919;48.274;12.292;2024-03-23T08:25:19;12.90;99.90
1800;DHT22;919;48.274;12.292;2024-03-23T08:27:45;12.70;99.90
1800;DHT22;919;48.274;12.292;2024-03-23T08:30:12;12.40;99.90
1800;DHT22;919;48.274;12.292;2024-03-23T08:32:38;12.10;99.90
1800;DHT22;919;48.274;12.292;2024-03-23T08:35:05;12.00;99.90
1800;DHT22;919;48.274;12.292;2024-03-23T08:37:32;11.80;99.90
1800;DHT22;919;48.274;12.292;2024-03-23T08:39:59;11.60;99.90
1800;DHT22;919;48.274;12.292;2024-03-23T08:42:26;11.40;99.90
1800;DHT22;919;48.274;12.292;2024-03-23T08:44:52;11.30;99.90
1800;DHT22;919;48.274;12.292;2024-03-23T08:47:18;11.20;99.90
1800;DHT22;919;48.274;12.292;2024-03-23T08:49:45;11.10;99.90
1800;DHT22;919;48.274;12.292;2024-03-23T08:52:11;11.00;99.90
1800;DHT22;919;48.274;12.292;2024-03-23T08:54:37;10.70;99.90
1800;DHT22;919;48.274;12.292;2024-03-23T08:57:03;10.50;99.90
1800;DHT22;919;48.274;12.292;2024-03-23T08:59:32;10.30;99.90
1800;DHT22;919;48.274;12.292;2024-03-23T09:01:57;10.20;99.90
1800;DHT22;919;48.274;12.292;2024-03-23T09:04:24;10.10;99.90
1800;DHT22;919;48.274;12.292;2024-03-23T09:06:50;10.10;99.90
1800;DHT22;919;48.274;12.292;2024-03-23T09:09:17;9.90;99.90
1800;DHT22;919;48.274;12.292;2024-03-23T09:11:43;9.90;99.90
1800;DHT22;919;48.274;12.292;2024-03-23T09:14:10;9.80;99.90
1800;DHT22;919;48.274;12.292;2024-03-23T09:16:37;9.80;99.90
1800;DHT22;919;48.274;12.292;2024-03-23T09:19:03;9.90;99.90
1800;DHT22;919;48.274;12.292;2024-03-23T09:21:29;9.80;99.90
1800;DHT22;919;48.274;12.292;2024-03-23T09:23:56;9.80;99.90
1800;DHT22;919;48.274;12.292;2024-03-23T09:26:21;9.80;99.90
1800;DHT22;919;48.274;12.292;2024-03-23T09:28:48;9.70;99.90
1800;DHT22;919;48.274;12.292;2024-03-23T09:31:14;9.70;99.90
1800;DHT22;919;48.274;12.292;2024-03-23T09:33:42;9.70;99.90
1800;DHT22;919;48.274;12.292;2024-03-23T09:36:08;9.80;99.90
1800;DHT22;919;48.274;12.292;2024-03-23T09:38:35;9.70;99.90
1800;DHT22;919;48.274;12.292;2024-03-23T09:41:07;9.70;99.90
1800;DHT22;919;48.274;12.292;2024-03-23T09:43:34;9.60;99.90
1800;DHT22;919;48.274;12.292;2024-03-23T09:46:00;9.60;99.90
1800;DHT22;919;48.274;12.292;2024-03-23T09:48:27;9.50;99.90
1800;DHT22;919;48.274;12.292;2024-03-23T09:50:54;9.50;99.90
1800;DHT22;919;48.274;12.292;2024-03-23T09:53:21;9.40;99.90
1800;DHT22;919;48.274;12.292;2024-03-23T09:55:48;9.40;99.90
1800;DHT22;919;48.274;12.292;2024-03-23T09:58:16;9.40;99.90
1800;DHT22;919;48.274;12.292;2024-03-23T10:00:42;9.40;99.90
1800;DHT22;919;48.274;12.292;2024-03-23T10:03:09;9.40;99.90
1800;DHT22;919;48.274;12.292;2024-03-23T10:05:37;9.50;99.90
1800;DHT22;919;48.274;12.292;2024-03-23T10:08:17;9.50;99.90
1800;DHT22;919;48.274;12.292;2024-03-23T10:10:44;9.60;99.90
1800;DHT22;919;48.274;12.292;2024-03-23T10:13:11;9.60;99.90
1800;DHT22;919;48.274;12.292;2024-03-23T10:15:55;9.60;99.90
1800;DHT22;919;48.274;12.292;2024-03-23T10:18:21;9.60;99.90
1800;DHT22;919;48.274;12.292;2024-03-23T10:20:51;9.60;99.90
1800;DHT22;919;48.274;12.292;2024-03-23T10:23:19;9.60;99.90
1800;DHT22;919;48.274;12.292;2024-03-23T10:25:45;9.40;99.90
1800;DHT22;919;48.274;12.292;2024-03-23T10:28:11;9.50;99.90
1800;DHT22;919;48.274;12.292;2024-03-23T10:30:38;9.50;99.90
1800;DHT22;919;48.274;12.292;2024-03-23T10:33:07;9.40;99.90
1800;DHT22;919;48.274;12.292;2024-03-23T10:35:34;9.50;99.90
1800;DHT22;919;48.274;12.292;2024-03-23T10:38:00;9.40;99.90
1800;DHT22;919;48.274;12.292;2024-03-23T10:40:29;9.30;99.90
1800;DHT22;919;48.274;12.292;2024-03-23T10:42:57;9.30;99.90
1800;DHT22;919;48.274;12.292;2024-03-23T10:45:24;9.20;99.90
1800;DHT22;919;48.274;12.292;2024-03-23T10:47:51;9.10;99.90
1800;DHT22;919;48.274;12.292;2024-03-23T10:50:18;9.10;99.90
1800;DHT22;919;48.274;12.292;2024-03-23T10:52:47;8.90;99.90
1800;DHT22;919;48.274;12.292;2024-03-23T10:55:17;8.90;99.90
1800;DHT22;919;48.274;12.292;2024-03-23T10:57:48;8.90;99.90
1800;DHT22;919;48.274;12.292;2024-03-23T11:00:17;9.00;99.90
1800;DHT22;919;48.274;12.292;2024-03-23T11:02:43;9.10;99.90
1800;DHT22;919;48.274;12.292;2024-03-23T11:05:28;9.10;99.90
1800;DHT22;919;48.274;12.292;2024-03-23T11:07:54;9.10;99.90
1800;DHT22;919;48.274;12.292;2024-03-23T11:10:25;9.20;99.90
1800;DHT22;919;48.274;12.292;2024-03-23T11:12:53;9.20;99.90
1800;DHT22;919;48.274;12.292;2024-03-23T11:15:19;9.30;99.90
1800;DHT22;919;48.274;12.292;2024-03-23T11:18:02;9.30;99.90
1800;DHT22;919;48.274;12.292;2024-03-23T11:20:33;9.30;99.90
1800;DHT22;919;48.274;12.292;2024-03-23T11:23:00;9.30;99.90
1800;DHT22;919;48.274;12.292;2024-03-23T11:25:27;9.20;99.90
1800;DHT22;919;48.274;12.292;2024-03-23T11:27:55;9.10;99.90
1800;DHT22;919;48.274;12.292;2024-03-23T11:30:24;9.00;99.90
1800;DHT22;919;48.274;12.292;2024-03-23T11:32:51;9.00;99.90
1800;DHT22;919;48.274;12.292;2024-03-23T11:35:26;9.00;99.90
1800;DHT22;919;48.274;12.292;2024-03-23T11:38:05;9.10;99.90
1800;DHT22;919;48.274;12.292;2024-03-23T11:40:32;9.00;99.90
1800;DHT22;919;48.274;12.292;2024-03-23T11:43:01;9.00;99.90
1800;DHT22;919;48.274;12.292;2024-03-23T11:45:33;8.90;99.90
1800;DHT22;919;48.274;12.292;2024-03-23T11:48:06;8.80;99.90
1800;DHT22;919;48.274;12.292;2024-03-23T11:50:34;8.70;99.90
1800;DHT22;919;48.274;12.292;2024-03-23T11:53:12;8.70;99.90
1800;DHT22;919;48.274;12.292;2024-03-23T11:55:43;8.80;99.90
1800;DHT22;919;48.274;12.292;2024-03-23T11:58:10;8.80;99.90
1800;DHT22;919;48.274;12.292;2024-03-23T12:00:37;8.90;99.90
1800;DHT22;919;48.274;12.292;2024-03-23T12:03:04;8.90;99.90
1800;DHT22;919;48.274;12.292;2024-03-23T12:05:31;8.90;99.90
1800;DHT22;919;48.274;12.292;2024-03-23T12:08:14;8.80;99.90
1800;DHT22;919;48.274;12.292;2024-03-23T12:10:44;8.90;99.90
1800;DHT22;919;48.274;12.292;2024-03-23T12:13:11;8.90;99.90
1800;DHT22;919;48.274;12.292;2024-03-23T12:15:37;9.00;99.90
1800;DHT22;919;48.274;12.292;2024-03-23T12:18:07;8.90;99.90
1800;DHT22;919;48.274;12.292;2024-03-23T12:20:34;8.90;99.90
1800;DHT22;919;48.274;12.292;2024-03-23T12:23:05;8.90;99.90
1800;DHT22;919;48.274;12.292;2024-03-23T12:25:32;9.00;99.90
1800;DHT22;919;48.274;12.292;2024-03-23T12:27:59;9.00;99.90
1800;DHT22;919;48.274;12.292;2024-03-23T12:30:27;9.00;99.90
1800;DHT22;919;48.274;12.292;2024-03-23T12:32:53;9.10;99.90
1800;DHT22;919;48.274;12.292;2024-03-23T12:35:20;9.00;99.90
1800;DHT22;919;48.274;12.292;2024-03-23T12:37:45;9.00;99.90
1800;DHT22;919;48.274;12.292;2024-03-23T12:40:12;9.00;99.90
1800;DHT22;919;48.274;12.292;2024-03-23T12:42:38;9.20;99.90
1800;DHT22;919;48.274;12.292;2024-03-23T12:45:05;9.30;99.90
1800;DHT22;919;48.274;12.292;2024-03-23T12:47:33;9.30;99.90
1800;DHT22;919;48.274;12.292;2024-03-23T12:50:00;9.30;99.90
1800;DHT22;919;48.274;12.292;2024-03-23T12:52:25;9.40;99.90
1800;DHT22;919;48.274;12.292;2024-03-23T12:54:54;9.50;99.90
1800;DHT22;919;48.274;12.292;2024-03-23T12:57:22;9.70;99.90
1800;DHT22;919;48.274;12.292;2024-03-23T12:59:48;9.90;99.90
1800;DHT22;919;48.274;12.292;2024-03-23T13:02:17;10.00;99.90
1800;DHT22;919;48.274;12.292;2024-03-23T13:04:46;10.00;99.90
1800;DHT22;919;48.274;12.292;2024-03-23T13:07:11;10.00;99.90
1800;DHT22;919;48.274;12.292;2024-03-23T13:09:38;9.90;99.90
1800;DHT22;919;48.274;12.292;2024-03-23T13:12:05;9.70;99.90
1800;DHT22;919;48.274;12.292;2024-03-23T13:14:31;9.70;99.90
1800;DHT22;919;48.274;12.292;2024-03-23T13:16:57;9.70;99.90
1800;DHT22;919;48.274;12.292;2024-03-23T13:19:24;9.60;99.90
1800;DHT22;919;48.274;12.292;2024-03-23T13:21:53;9.60;99.90
1800;DHT22;919;48.274;12.292;2024-03-23T13:24:24;9.70;99.90
1800;DHT22;919;48.274;12.292;2024-03-23T13:26:50;9.80;99.90
1800;DHT22;919;48.274;12.292;2024-03-23T13:29:17;9.90;99.90
1800;DHT22;919;48.274;12.292;2024-03-23T13:31:43;9.90;99.90
1800;DHT22;919;48.274;12.292;2024-03-23T13:34:09;10.00;99.90
1800;DHT22;919;48.274;12.292;2024-03-23T13:36:35;10.00;99.90
1800;DHT22;919;48.274;12.292;2024-03-23T13:39:04;10.10;99.90
1800;DHT22;919;48.274;12.292;2024-03-23T13:41:37;9.90;99.90
1800;DHT22;919;48.274;12.292;2024-03-23T13:44:04;9.90;99.90
1800;DHT22;919;48.274;12.292;2024-03-23T13:46:29;9.70;99.90
1800;DHT22;919;48.274;12.292;2024-03-23T13:48:56;9.60;99.90
1800;DHT22;919;48.274;12.292;2024-03-23T13:51:23;9.60;99.90
1800;DHT22;919;48.274;12.292;2024-03-23T13:53:52;9.60;99.90
1800;DHT22;919;48.274;12.292;2024-03-23T13:56:19;9.60;99.90
1800;DHT22;919;48.274;12.292;2024-03-23T13:58:46;9.60;99.90
1800;DHT22;919;48.274;12.292;2024-03-23T14:01:13;9.60;99.90
1800;DHT22;919;48.274;12.292;2024-03-23T14:03:40;9.60;99.90
1800;DHT22;919;48.274;12.292;2024-03-23T14:06:06;9.60;99.90
1800;DHT22;919;48.274;12.292;2024-03-23T14:08:34;9.70;99.90
1800;DHT22;919;48.274;12.292;2024-03-23T14:11:02;9.60;99.90
1800;DHT22;919;48.274;12.292;2024-03-23T14:13:30;9.50;99.90
1800;DHT22;919;48.274;12.292;2024-03-23T14:15:56;9.50;99.90
1800;DHT22;919;48.274;12.292;2024-03-23T14:18:23;9.50;99.90
1800;DHT22;919;48.274;12.292;2024-03-23T14:20:49;9.50;99.90
1800;DHT22;919;48.274;12.292;2024-03-23T14:23:16;9.40;99.90
1800;DHT22;919;48.274;12.292;2024-03-23T14:25:42;9.40;99.90
1800;DHT22;919;48.274;12.292;2024-03-23T14:28:09;9.40;99.90
1800;DHT22;919;48.274;12.292;2024-03-23T14:30:41;9.30;99.90
1800;DHT22;919;48.274;12.292;2024-03-23T14:33:08;9.20;99.90
1800;DHT22;919;48.274;12.292;2024-03-23T14:35:34;9.00;99.90
1800;DHT22;919;48.274;12.292;2024-03-23T14:38:01;8.80;99.90
1800;DHT22;919;48.274;12.292;2024-03-23T14:40:26;8.40;99.90
1800;DHT22;919;48.274;12.292;2024-03-23T14:42:54;8.10;99.90
1800;DHT22;919;48.274;12.292;2024-03-23T14:45:20;7.90;99.90
1800;DHT22;919;48.274;12.292;2024-03-23T14:47:48;7.70;99.90
1800;DHT22;919;48.274;12.292;2024-03-23T14:50:14;7.60;99.90
1800;DHT22;919;48.274;12.292;2024-03-23T14:52:43;7.50;99.90
1800;DHT22;919;48.274;12.292;2024-03-23T14:55:09;7.40;99.90
1800;DHT22;919;48.274;12.292;2024-03-23T14:57:36;7.50;99.90
1800;DHT22;919;48.274;12.292;2024-03-23T15:00:02;7.40;99.90
1800;DHT22;919;48.274;12.292;2024-03-23T15:02:30;7.40;99.90
1800;DHT22;919;48.274;12.292;2024-03-23T15:04:58;7.30;99.90
1800;DHT22;919;48.274;12.292;2024-03-23T15:07:25;7.30;99.90
1800;DHT22;919;48.274;12.292;2024-03-23T15:09:51;7.40;99.90
1800;DHT22;919;48.274;12.292;2024-03-23T15:12:19;7.40;99.90
1800;DHT22;919;48.274;12.292;2024-03-23T15:14:44;7.40;99.90
1800;DHT22;919;48.274;12.292;2024-03-23T15:17:11;7.50;99.90
1800;DHT22;919;48.274;12.292;2024-03-23T15:19:37;7.50;99.90
1800;DHT22;919;48.274;12.292;2024-03-23T15:22:05;7.50;99.90
1800;DHT22;919;48.274;12.292;2024-03-23T15:24:31;7.30;99.90
1800;DHT22;919;48.274;12.292;2024-03-23T15:26:59;7.40;99.90
1800;DHT22;919;48.274;12.292;2024-03-23T15:29:25;7.20;99.90
1800;DHT22;919;48.274;12.292;2024-03-23T15:31:52;7.20;99.90
1800;DHT22;919;48.274;12.292;2024-03-23T15:34:18;7.10;99.90
1800;DHT22;919;48.274;12.292;2024-03-23T15:36:47;7.10;99.90
1800;DHT22;919;48.274;12.292;2024-03-23T15:39:14;7.10;99.90
1800;DHT22;919;48.274;12.292;2024-03-23T15:41:41;7.10;99.90
1800;DHT22;919;48.274;12.292;2024-03-23T15:44:08;7.00;99.90
1800;DHT22;919;48.274;12.292;2024-03-23T15:46:35;7.10;99.90
1800;DHT22;919;48.274;12.292;2024-03-23T15:49:01;7.00;99.90
1800;DHT22;919;48.274;12.292;2024-03-23T15:51:28;7.00;99.90
1800;DHT22;919;48.274;12.292;2024-03-23T15:53:58;7.10;99.90
1800;DHT22;919;48.274;12.292;2024-03-23T15:56:26;7.10;99.90
1800;DHT22;919;48.274;12.292;2024-03-23T15:58:53;7.10;99.90
1800;DHT22;919;48.274;12.292;2024-03-23T16:01:19;7.10;99.90
1800;DHT22;919;48.274;12.292;2024-03-23T16:03:46;7.10;99.90
1800;DHT22;919;48.274;12.292;2024-03-23T16:06:13;7.10;99.90
1800;DHT22;919;48.274;12.292;2024-03-23T16:08:38;7.10;99.90
1800;DHT22;919;48.274;12.292;2024-03-23T16:11:06;7.10;99.90
1800;DHT22;919;48.274;12.292;2024-03-23T16:13:34;7.00;99.90
1800;DHT22;919;48.274;12.292;2024-03-23T16:16:02;7.10;99.90
1800;DHT22;919;48.274;12.292;2024-03-23T16:18:29;7.10;99.90
1800;DHT22;919;48.274;12.292;2024-03-23T16:20:57;7.10;99.90
1800;DHT22;919;48.274;12.292;2024-03-23T16:23:23;7.10;99.90
1800;DHT22;919;48.274;12.292;2024-03-23T16:25:52;7.10;99.90
1800;DHT22;919;48.274;12.292;2024-03-23T16:28:23;7.10;99.90
1800;DHT22;919;48.274;12.292;2024-03-23T16:30:55;7.10;99.90
1800;DHT22;919;48.274;12.292;2024-03-23T16:33:21;7.10;99.90
1800;DHT22;919;48.274;12.292;2024-03-23T16:35:58;7.00;99.90
1800;DHT22;919;48.274;12.292;2024-03-23T16:38:24;7.00;99.90
1800;DHT22;919;48.274;12.292;2024-03-23T16:40:58;7.00;99.90
1800;DHT22;919;48.274;12.292;2024-03-23T16:43:25;7.20;99.90
1800;DHT22;919;48.274;12.292;2024-03-23T16:45:54;7.90;99.90
1800;DHT22;919;48.274;12.292;2024-03-23T16:48:21;8.60;99.90
1800;DHT22;919;48.274;12.292;2024-03-23T16:50:48;8.50;99.90
1800;DHT22;919;48.274;12.292;2024-03-23T16:53:14;8.10;99.90
1800;DHT22;919;48.274;12.292;2024-03-23T16:55:40;7.70;99.90
1800;DHT22;919;48.274;12.292;2024-03-23T16:58:06;7.40;99.90
1800;DHT22;919;48.274;12.292;2024-03-23T17:00:33;7.20;99.90
1800;DHT22;919;48.274;12.292;2024-03-23T17:03:01;7.00;99.90
1800;DHT22;919;48.274;12.292;2024-03-23T17:05:27;6.90;99.90
1800;DHT22;919;48.274;12.292;2024-03-23T17:07:53;6.70;99.90